Edgerton, Minnesota
Current Conditions -  °F | °C
As of 7:54 PM on Saturday 22 Nov 2014 (Local Time) from KPQN Reporting Station
Clear Clear  
Wind Chill: 28°   Ceiling: Unl
Heat Index: 37°   Visibility: 7mi
Dew Point: 36°   Wind: 17mph
Humidity: 93%   Direction: 190°S
Pressure: 29.46"   Gusts: NA
Location:  43.87°N, 96.13°W
Report Text: KPQN 230154Z AUTO 19015KT 7SM CLR 03/02 A2946 RMK AO2
Loading
Personal Weather Stations






























Interactive Weather Map New forecast layout! Learn more

10-Day Weather Forecast

Advertisements
Track Severe Weather on mobile